Time;durP1;ratioP1;P1;durP2;ratioP2;P2;SDS_P1;SDS_P2;PMS_P1;PMS_P2;Temp;Humidity;BMP_temperature;BMP_pressure;BME280_temperature;BME280_humidity;BME280_pressure;Samples;Min_cycle;Max_cycle;Signal;HPM_P1;HPM_P2
2021/05/08 00:00:32;;;;;;;1.63;0.73;;;;;;;22.54;45.69;98653.22;5053801;28;20207;-61
2021/05/08 00:02:58;;;;;;;2.17;1.00;;;;;;;22.52;45.03;98652.53;5069513;28;20285;-63
2021/05/08 00:05:25;;;;;;;1.98;0.90;;;;;;;22.54;44.83;98660.38;5057412;28;20208;-63
2021/05/08 00:07:51;;;;;;;2.35;0.80;;;;;;;22.50;45.70;98645.72;5060875;28;20556;-62
2021/05/08 00:10:17;;;;;;;1.27;0.75;;;;;;;22.49;45.36;98658.19;5061019;28;20213;-63
2021/05/08 00:12:45;;;;;;;3.22;0.85;;;;;;;22.48;45.40;98653.84;5060069;28;20260;-63
2021/05/08 00:15:14;;;;;;;1.83;0.98;;;;;;;22.47;45.50;98651.34;5062449;28;20206;-64
2021/05/08 00:17:40;;;;;;;1.90;1.00;;;;;;;22.47;45.71;98659.34;5064707;28;20339;-59
2021/05/08 00:20:08;;;;;;;1.73;0.70;;;;;;;22.45;45.75;98653.31;5064438;28;20646;-63
2021/05/08 00:22:34;;;;;;;2.88;0.82;;;;;;;22.47;44.95;98656.69;5059192;28;20226;-63
2021/05/08 00:25:00;;;;;;;2.17;1.00;;;;;;;22.46;45.28;98655.81;5057612;28;20286;-62
2021/05/08 00:27:26;;;;;;;1.60;0.90;;;;;;;22.45;46.08;98648.84;5059683;28;20317;-64
2021/05/08 00:29:53;;;;;;;2.60;0.85;;;;;;;22.43;45.70;98653.50;5062846;28;20194;-63
2021/05/08 00:32:20;;;;;;;0.82;0.60;;;;;;;22.42;45.58;98651.81;5061071;28;20302;-63
2021/05/08 00:34:46;;;;;;;1.02;0.73;;;;;;;22.41;45.86;98652.78;5064313;28;20287;-63
2021/05/08 00:37:12;;;;;;;3.08;0.80;;;;;;;22.41;45.47;98658.09;5059938;28;20203;-63
2021/05/08 00:39:38;;;;;;;2.30;0.77;;;;;;;22.39;45.99;98665.44;5064437;28;20270;-64
2021/05/08 00:42:05;;;;;;;1.65;0.80;;;;;;;22.39;45.88;98660.09;5062941;28;20195;-64
2021/05/08 00:44:31;;;;;;;1.15;0.70;;;;;;;22.39;46.08;98654.78;5062420;28;20211;-63
2021/05/08 00:46:58;;;;;;;2.75;0.93;;;;;;;22.37;45.27;98656.75;5062273;28;20214;-63
2021/05/08 00:49:27;;;;;;;2.20;0.85;;;;;;;22.36;45.54;98655.06;5065508;28;20215;-64
2021/05/08 00:51:54;;;;;;;2.47;1.02;;;;;;;22.34;46.39;98649.91;5067053;28;20218;-63
2021/05/08 00:54:20;;;;;;;0.95;0.70;;;;;;;22.36;45.23;98649.75;5068559;28;20233;-62
2021/05/08 00:56:46;;;;;;;1.45;0.73;;;;;;;22.35;46.12;98645.44;5063032;28;20208;-63
2021/05/08 00:59:12;;;;;;;0.90;0.75;;;;;;;22.33;45.43;98653.56;5066804;28;20248;-63
2021/05/08 01:01:40;;;;;;;1.08;0.60;;;;;;;22.33;45.94;98650.06;5067014;28;20198;-63
2021/05/08 01:04:07;;;;;;;3.38;0.98;;;;;;;22.34;46.02;98647.25;5069116;28;20385;-62
2021/05/08 01:06:33;;;;;;;1.00;0.80;;;;;;;22.33;46.12;98650.06;5064186;28;20343;-63
2021/05/08 01:08:59;;;;;;;1.60;0.80;;;;;;;22.31;46.33;98646.72;5064488;28;20227;-64
2021/05/08 01:11:25;;;;;;;2.50;0.70;;;;;;;22.32;46.12;98659.88;5068318;28;20230;-63
2021/05/08 01:13:52;;;;;;;2.33;0.80;;;;;;;22.32;46.15;98659.88;5066232;28;20666;-62
2021/05/08 01:16:18;;;;;;;1.38;0.70;;;;;;;22.30;46.15;98650.34;5063812;28;20205;-63
2021/05/08 01:18:50;;;;;;;2.70;0.95;;;;;;;22.28;45.41;98663.84;5064119;28;20301;-62
2021/05/08 01:21:19;;;;;;;1.65;0.73;;;;;;;22.29;45.57;98654.03;5067732;28;20202;-62
2021/05/08 01:23:46;;;;;;;1.15;0.75;;;;;;;22.28;46.24;98658.53;5062794;28;20214;-63
2021/05/08 01:26:12;;;;;;;1.05;0.80;;;;;;;22.28;45.70;98660.31;5062985;28;20198;-64
2021/05/08 01:28:38;;;;;;;1.20;0.80;;;;;;;22.26;46.16;98657.78;5065444;28;20648;-65
2021/05/08 01:31:05;;;;;;;2.13;1.10;;;;;;;22.25;45.78;98652.63;5068061;28;20856;-64
2021/05/08 01:33:31;;;;;;;1.25;0.70;;;;;;;22.24;46.03;98650.97;5062925;28;20290;-63
2021/05/08 01:35:57;;;;;;;2.28;1.00;;;;;;;22.26;46.22;98643.66;5067538;28;20203;-63
2021/05/08 01:38:25;;;;;;;2.10;0.93;;;;;;;22.25;46.23;98640.16;5057499;28;20313;-63
2021/05/08 01:40:59;;;;;;;2.50;0.95;;;;;;;22.24;46.04;98645.63;5067034;28;20267;-63
2021/05/08 01:43:25;;;;;;;1.13;0.75;;;;;;;22.22;45.44;98636.97;5062134;28;20205;-63
2021/05/08 01:45:51;;;;;;;1.40;0.70;;;;;;;22.23;46.27;98643.94;5067564;28;20255;-64
2021/05/08 01:48:17;;;;;;;1.63;0.70;;;;;;;22.19;45.99;98632.78;5066422;28;20222;-64
2021/05/08 01:50:44;;;;;;;1.75;0.60;;;;;;;22.19;46.44;98627.44;5068709;28;20275;-63
2021/05/08 01:53:10;;;;;;;1.17;0.75;;;;;;;22.20;46.03;98629.13;5066520;28;20252;-62
2021/05/08 01:55:37;;;;;;;2.55;1.00;;;;;;;22.20;45.63;98622.94;5062084;28;20651;-63
2021/05/08 01:58:03;;;;;;;1.10;0.60;;;;;;;22.17;46.29;98624.94;5061934;28;20230;-62
2021/05/08 02:00:32;;;;;;;2.90;0.85;;;;;;;22.17;45.65;98630.25;5061366;28;20206;-62
2021/05/08 02:02:59;;;;;;;1.85;0.60;;;;;;;22.17;45.96;98619.63;5062068;28;20206;-63
2021/05/08 02:05:29;;;;;;;2.63;0.85;;;;;;;22.15;46.06;98621.59;5065755;28;20248;-64
2021/05/08 02:07:55;;;;;;;0.80;0.60;;;;;;;22.16;46.53;98620.59;5061619;28;20371;-62
2021/05/08 02:10:22;;;;;;;1.02;0.80;;;;;;;22.14;46.51;98614.59;5064257;28;20309;-61
2021/05/08 02:12:49;;;;;;;2.10;1.08;;;;;;;22.12;46.80;98615.75;5062856;28;20738;-63
2021/05/08 02:15:18;;;;;;;0.80;0.75;;;;;;;22.13;46.43;98617.41;5061926;28;20719;-62
2021/05/08 02:17:44;;;;;;;2.05;0.80;;;;;;;22.13;46.72;98622.72;5068075;28;20255;-63
2021/05/08 02:20:13;;;;;;;3.95;0.82;;;;;;;22.13;46.03;98612.94;5066529;28;20505;-64
2021/05/08 02:22:40;;;;;;;1.15;0.60;;;;;;;22.12;46.04;98613.91;5073949;28;20569;-63
2021/05/08 02:25:07;;;;;;;1.02;0.80;;;;;;;22.09;46.23;98616.88;5066707;28;20356;-65
2021/05/08 02:27:34;;;;;;;1.67;0.80;;;;;;;22.09;47.17;98616.88;5056589;28;20223;-63
2021/05/08 02:30:01;;;;;;;1.35;0.70;;;;;;;22.08;46.44;98603.72;5075977;28;20256;-64
2021/05/08 02:32:27;;;;;;;2.72;0.70;;;;;;;22.06;45.94;98611.84;5085841;28;20261;-64
2021/05/08 02:34:53;;;;;;;1.02;0.70;;;;;;;22.07;46.49;98612.72;5066787;28;20203;-63
2021/05/08 02:37:19;;;;;;;2.13;0.93;;;;;;;22.07;45.92;98613.53;5060906;28;20618;-64
2021/05/08 02:39:46;;;;;;;0.77;0.65;;;;;;;22.06;46.73;98603.88;5066559;28;20248;-64
2021/05/08 02:42:12;;;;;;;0.75;0.47;;;;;;;22.05;46.32;98607.53;5059498;28;20290;-63
2021/05/08 02:44:38;;;;;;;2.10;0.80;;;;;;;22.04;46.86;98607.69;5064689;28;20231;-63
2021/05/08 02:47:16;;;;;;;1.67;0.77;;;;;;;22.01;46.58;98606.16;5064940;28;20203;-62
2021/05/08 02:49:43;;;;;;;0.60;0.57;;;;;;;22.03;46.67;98606.84;5066747;28;20190;-63
2021/05/08 02:52:09;;;;;;;1.88;0.90;;;;;;;22.02;46.79;98605.19;5059577;28;20268;-63
2021/05/08 02:54:35;;;;;;;1.88;0.88;;;;;;;22.01;46.08;98608.81;5063969;28;20547;-61
2021/05/08 02:57:01;;;;;;;3.80;0.88;;;;;;;21.98;46.68;98607.31;5055356;28;20202;-62
2021/05/08 02:59:27;;;;;;;1.33;0.75;;;;;;;21.98;46.41;98609.13;5062767;28;20301;-63
2021/05/08 03:01:53;;;;;;;2.40;0.70;;;;;;;21.99;46.64;98614.28;5060538;28;20299;-62
2021/05/08 03:04:20;;;;;;;4.05;0.98;;;;;;;21.99;46.73;98616.97;5065483;28;20600;-62
2021/05/08 03:06:46;;;;;;;0.65;0.60;;;;;;;21.98;47.12;98617.09;5058659;28;20707;-63
2021/05/08 03:09:12;;;;;;;1.92;0.80;;;;;;;21.97;47.01;98612.78;5058448;28;20255;-62
2021/05/08 03:11:38;;;;;;;1.73;0.80;;;;;;;21.96;47.02;98608.44;5064009;28;20326;-63
2021/05/08 03:14:04;;;;;;;2.72;0.70;;;;;;;21.97;46.74;98604.81;5063822;28;20203;-64
2021/05/08 03:16:30;;;;;;;1.20;0.40;;;;;;;21.96;46.29;98608.44;5059197;28;20486;-63
2021/05/08 03:18:57;;;;;;;0.95;0.60;;;;;;;21.97;46.07;98596.81;5065089;28;20227;-63
2021/05/08 03:21:24;;;;;;;1.50;0.68;;;;;;;21.96;46.71;98600.47;5055088;28;20198;-62
2021/05/08 03:23:50;;;;;;;1.25;0.90;;;;;;;21.94;46.60;98605.94;5065849;28;20655;-62
2021/05/08 03:26:16;;;;;;;1.33;0.80;;;;;;;21.95;47.24;98602.28;5060016;28;20210;-64
2021/05/08 03:28:42;;;;;;;1.88;0.90;;;;;;;21.93;46.14;98601.63;5064343;28;20229;-63
2021/05/08 03:31:08;;;;;;;1.20;0.68;;;;;;;21.92;46.66;98591.13;5065078;28;20207;-57
2021/05/08 03:33:34;;;;;;;1.25;0.60;;;;;;;21.93;46.75;98580.31;5064068;28;20643;-63
2021/05/08 03:36:00;;;;;;;1.13;0.63;;;;;;;21.92;46.50;98589.28;5064271;28;20263;-63
2021/05/08 03:38:27;;;;;;;0.82;0.60;;;;;;;21.93;46.54;98606.09;5062530;28;21029;-62
2021/05/08 03:40:54;;;;;;;1.27;0.60;;;;;;;21.91;47.32;98597.41;5057812;28;20312;-62
2021/05/08 03:43:20;;;;;;;3.13;0.70;;;;;;;21.91;46.76;98598.25;5064928;28;20293;-59
2021/05/08 03:45:49;;;;;;;3.15;0.90;;;;;;;21.90;46.66;98585.09;5063330;28;20251;-62
2021/05/08 03:48:15;;;;;;;2.22;0.80;;;;;;;21.91;46.20;98592.94;5065464;28;20630;-62
2021/05/08 03:50:41;;;;;;;1.73;0.70;;;;;;;21.89;46.58;98591.41;5065304;28;20714;-63
2021/05/08 03:53:07;;;;;;;0.75;0.60;;;;;;;21.91;46.92;98595.59;5053437;28;20670;-63
2021/05/08 03:55:37;;;;;;;0.70;0.40;;;;;;;21.89;46.58;98592.25;5057760;28;20283;-63
2021/05/08 03:58:03;;;;;;;1.05;0.70;;;;;;;21.89;47.25;98592.25;5061959;28;20225;-63
2021/05/08 04:00:29;;;;;;;0.82;0.70;;;;;;;21.88;46.55;98595.06;5053833;28;20198;-62
2021/05/08 04:02:56;;;;;;;2.38;0.70;;;;;;;21.88;47.55;98597.72;5065469;28;20223;-62
2021/05/08 04:05:22;;;;;;;1.88;0.90;;;;;;;21.86;47.31;98597.03;5062824;28;20203;-61
2021/05/08 04:07:48;;;;;;;2.17;0.70;;;;;;;21.85;46.38;98590.91;5065098;28;20222;-63
2021/05/08 04:10:14;;;;;;;0.68;0.55;;;;;;;21.86;46.31;98594.38;5057119;28;20214;-60
2021/05/08 04:12:41;;;;;;;1.67;0.70;;;;;;;21.85;46.96;98593.56;5060669;28;20229;-61
2021/05/08 04:15:08;;;;;;;2.00;0.70;;;;;;;21.83;47.01;98592.84;5063189;28;20240;-62
2021/05/08 04:17:34;;;;;;;1.40;0.70;;;;;;;21.83;47.06;98587.53;5063684;28;20357;-62
2021/05/08 04:20:00;;;;;;;1.77;0.60;;;;;;;21.84;46.49;98581.22;5060798;28;20228;-61
2021/05/08 04:22:26;;;;;;;2.30;0.70;;;;;;;21.85;47.09;98582.91;5062883;28;20203;-63
2021/05/08 04:24:52;;;;;;;1.52;0.70;;;;;;;21.81;47.38;98582.34;5063476;28;20203;-61
2021/05/08 04:27:18;;;;;;;1.75;0.90;;;;;;;21.81;47.33;98579.69;5056082;28;20250;-61
2021/05/08 04:29:45;;;;;;;0.70;0.60;;;;;;;21.81;47.07;98579.69;5062684;28;20293;-61
2021/05/08 04:32:12;;;;;;;1.73;0.70;;;;;;;21.80;47.35;98583.38;5064542;28;20333;-61
2021/05/08 04:34:38;;;;;;;1.33;0.60;;;;;;;21.79;46.81;98576.34;5065779;28;20221;-61
2021/05/08 04:37:04;;;;;;;2.42;0.60;;;;;;;21.83;46.55;98589.38;5062977;28;20572;-57
2021/05/08 04:39:30;;;;;;;1.42;0.60;;;;;;;21.80;46.67;98585.19;5069675;28;20198;-62
2021/05/08 04:41:56;;;;;;;1.65;0.85;;;;;;;21.79;47.48;98581.69;5063584;28;20203;-63
2021/05/08 04:44:23;;;;;;;0.70;0.63;;;;;;;21.78;47.02;98582.69;5057265;28;20651;-63
2021/05/08 04:46:50;;;;;;;1.10;0.60;;;;;;;21.76;46.56;98581.16;5058321;28;20213;-63
2021/05/08 04:49:17;;;;;;;1.20;0.60;;;;;;;21.76;46.57;98584.63;5061488;28;20317;-63
2021/05/08 04:51:43;;;;;;;1.92;0.50;;;;;;;21.75;47.03;98572.34;5065105;28;20337;-62
2021/05/08 04:54:09;;;;;;;1.17;0.70;;;;;;;21.73;46.55;98579.66;5062497;28;20203;-62
2021/05/08 04:56:35;;;;;;;1.35;0.65;;;;;;;21.73;47.27;98577.00;5049770;28;20576;-60
2021/05/08 04:59:01;;;;;;;1.80;0.75;;;;;;;21.74;46.95;98578.63;5056815;28;20218;-62
2021/05/08 05:01:28;;;;;;;1.13;0.75;;;;;;;21.74;47.47;98581.31;5061709;28;20617;-63
2021/05/08 05:03:55;;;;;;;1.27;0.60;;;;;;;21.74;47.33;98580.47;5060641;28;20196;-62
2021/05/08 05:06:21;;;;;;;2.17;0.70;;;;;;;21.74;46.36;98581.31;5063559;28;20206;-61
2021/05/08 05:08:47;;;;;;;2.30;0.80;;;;;;;21.73;47.37;98578.78;5060797;28;20350;-62
2021/05/08 05:11:15;;;;;;;1.77;0.80;;;;;;;21.71;46.90;98570.97;5062095;28;20207;-63
2021/05/08 05:13:41;;;;;;;0.75;0.52;;;;;;;21.71;47.28;98578.13;5064784;28;20226;-61
2021/05/08 05:16:09;;;;;;;0.63;0.60;;;;;;;21.73;47.29;98579.66;5058727;28;20893;-64
2021/05/08 05:18:35;;;;;;;2.17;0.75;;;;;;;21.75;47.09;98577.66;5062322;28;20276;-61
2021/05/08 05:21:02;;;;;;;1.30;0.60;;;;;;;21.75;47.29;98577.66;5057711;28;20328;-61
2021/05/08 05:23:28;;;;;;;0.93;0.68;;;;;;;21.77;47.41;98581.00;5059803;28;20222;-62
2021/05/08 05:25:55;;;;;;;1.10;0.63;;;;;;;21.78;47.15;98588.00;5058055;28;20649;-64
2021/05/08 05:28:22;;;;;;;1.77;0.85;;;;;;;21.76;47.74;98589.13;5064469;28;20380;-61
2021/05/08 05:30:48;;;;;;;1.30;0.73;;;;;;;21.75;47.51;98588.31;5061310;28;20205;-61
2021/05/08 05:33:14;;;;;;;1.13;0.60;;;;;;;21.77;48.16;98588.97;5072035;28;20235;-64
2021/05/08 05:35:40;;;;;;;1.90;0.70;;;;;;;21.78;47.69;98589.81;5075931;28;20365;-64
2021/05/08 05:38:07;;;;;;;2.75;0.60;;;;;;;21.79;47.03;98594.97;5071394;28;20229;-64
2021/05/08 05:40:34;;;;;;;1.33;0.70;;;;;;;21.79;47.33;98592.31;5065191;28;20501;-61
2021/05/08 05:43:01;;;;;;;1.00;0.60;;;;;;;21.84;46.62;98591.03;5062888;28;20187;-63
2021/05/08 05:45:27;;;;;;;1.27;0.70;;;;;;;21.85;47.29;98588.22;5062077;28;20199;-63
2021/05/08 05:47:57;;;;;;;0.95;0.60;;;;;;;21.87;46.81;98591.56;5066165;28;20404;-63
2021/05/08 05:50:24;;;;;;;3.17;0.80;;;;;;;21.86;46.78;98589.88;5064946;28;20623;-63
2021/05/08 05:52:53;;;;;;;1.98;0.98;;;;;;;21.89;45.98;98588.75;5067879;28;20218;-63
2021/05/08 05:55:20;;;;;;;1.25;0.82;;;;;;;21.89;46.74;98583.44;5062134;28;20199;-60
2021/05/08 05:57:46;;;;;;;3.80;1.00;;;;;;;21.96;46.52;98580.00;5058983;28;20324;-61
2021/05/08 06:00:13;;;;;;;8.63;1.45;;;;;;;22.05;47.12;98577.41;5058024;28;20215;-64
2021/05/08 06:02:39;;;;;;;19.70;2.30;;;;;;;22.08;47.77;98580.63;5065674;28;20292;-65
2021/05/08 06:05:06;;;;;;;31.70;3.42;;;;;;;22.10;48.25;98569.78;5055321;28;20203;-53
2021/05/08 06:07:32;;;;;;;23.65;3.35;;;;;;;22.12;47.78;98573.97;5060741;28;20243;-53
2021/05/08 06:09:58;;;;;;;37.65;3.15;;;;;;;22.13;47.76;98577.47;5064595;28;20547;-60
2021/05/08 06:12:25;;;;;;;24.63;3.15;;;;;;;22.15;48.27;98579.00;5062995;28;20333;-61
2021/05/08 06:14:52;;;;;;;20.70;2.83;;;;;;;22.18;47.49;98583.16;5066583;28;20195;-63
2021/05/08 06:17:18;;;;;;;12.63;1.73;;;;;;;22.22;48.29;98583.72;5062833;28;20210;-62
2021/05/08 06:19:44;;;;;;;15.90;2.35;;;;;;;22.25;47.31;98586.03;5064853;28;20209;-63
2021/05/08 06:22:10;;;;;;;8.88;1.35;;;;;;;22.22;47.32;98589.03;5061970;28;20302;-59
2021/05/08 06:24:36;;;;;;;9.30;1.70;;;;;;;22.25;47.35;98583.38;5063866;28;20236;-63
2021/05/08 06:27:02;;;;;;;14.13;2.30;;;;;;;22.23;47.24;98580.88;5060645;28;20209;-63
2021/05/08 06:29:29;;;;;;;10.38;2.08;;;;;;;22.25;47.83;98583.38;5065474;28;20242;-64
2021/05/08 06:31:55;;;;;;;11.70;1.70;;;;;;;22.26;47.71;98577.06;5062345;28;20229;-63
2021/05/08 06:34:22;;;;;;;14.82;1.70;;;;;;;22.23;47.48;98580.03;5064777;28;20198;-64
2021/05/08 06:36:48;;;;;;;9.88;2.75;;;;;;;21.85;38.73;98592.69;5065249;28;20245;-57
2021/05/08 06:39:14;;;;;;;5.10;2.30;;;;;;;21.57;36.98;98587.47;5064439;28;20332;-62
2021/05/08 06:41:40;;;;;;;8.57;2.13;;;;;;;21.33;35.19;98588.00;5058133;28;20540;-61
2021/05/08 06:44:07;;;;;;;6.10;2.00;;;;;;;21.59;37.95;98593.47;5058489;28;20684;-63
2021/05/08 06:46:34;;;;;;;10.70;1.90;;;;;;;21.94;42.24;98586.47;5061402;28;21057;-63
2021/05/08 06:49:00;;;;;;;10.15;1.73;;;;;;;22.06;41.72;98587.91;5058378;28;20810;-61
2021/05/08 06:51:27;;;;;;;7.68;1.58;;;;;;;22.10;44.72;98578.63;5063677;28;20198;-63
2021/05/08 06:53:53;;;;;;;11.43;1.70;;;;;;;22.18;45.26;98584.00;5059651;28;20226;-62
2021/05/08 06:56:19;;;;;;;8.82;1.30;;;;;;;22.27;44.67;98578.75;5056821;28;20230;-65
2021/05/08 06:58:45;;;;;;;7.72;1.73;;;;;;;22.31;43.78;98570.31;5059314;28;20230;-65
2021/05/08 07:01:11;;;;;;;9.77;1.60;;;;;;;22.34;43.54;98566.50;5064172;28;20290;-66
2021/05/08 07:03:38;;;;;;;8.30;1.40;;;;;;;22.36;42.80;98553.84;5063965;28;20216;-65
2021/05/08 07:06:04;;;;;;;7.20;1.48;;;;;;;22.37;44.00;98554.72;5062098;28;20211;-65
2021/05/08 07:08:31;;;;;;;6.75;1.40;;;;;;;22.39;43.48;98550.88;5063970;28;20241;-65
2021/05/08 07:10:57;;;;;;;3.33;1.20;;;;;;;22.42;44.27;98555.09;5060835;28;20314;-65
2021/05/08 07:13:23;;;;;;;5.18;1.23;;;;;;;22.41;43.81;98546.22;5062386;28;20227;-65
2021/05/08 07:15:49;;;;;;;3.55;1.27;;;;;;;22.43;44.32;98548.75;5063925;28;20201;-64
2021/05/08 07:18:16;;;;;;;6.30;1.30;;;;;;;22.43;44.20;98546.94;5065702;28;20333;-64
2021/05/08 07:20:42;;;;;;;2.42;1.00;;;;;;;22.43;44.08;98536.28;5064241;28;20252;-65
2021/05/08 07:23:09;;;;;;;4.43;1.13;;;;;;;22.44;44.40;98539.78;5058957;28;20205;-65
2021/05/08 07:25:37;;;;;;;7.22;1.85;;;;;;;22.46;44.33;98543.09;5062433;28;20202;-65
2021/05/08 07:28:10;;;;;;;12.80;1.40;;;;;;;22.42;43.55;98541.75;5065404;28;20241;-67
2021/05/08 07:30:37;;;;;;;14.30;1.67;;;;;;;22.40;43.58;98543.72;5064371;28;20242;-63
2021/05/08 07:33:03;;;;;;;12.48;1.42;;;;;;;22.34;42.94;98546.03;5064813;28;20223;-63
2021/05/08 07:35:30;;;;;;;2.75;0.90;;;;;;;22.34;42.81;98539.88;5055022;28;20596;-65
2021/05/08 07:37:57;;;;;;;17.15;1.67;;;;;;;22.35;43.32;98542.38;5063426;28;20218;-61
2021/05/08 07:40:23;;;;;;;8.43;1.40;;;;;;;22.37;43.01;98544.88;5063156;28;20333;-63
2021/05/08 07:42:49;;;;;;;5.00;1.30;;;;;;;22.38;43.54;98541.22;5064492;28;20234;-57
2021/05/08 07:45:15;;;;;;;4.45;1.30;;;;;;;22.37;43.45;98539.56;5062089;28;21136;-57
2021/05/08 07:47:41;;;;;;;3.08;1.08;;;;;;;22.38;42.72;98540.38;5065476;28;20754;-62
2021/05/08 07:50:09;;;;;;;5.35;1.20;;;;;;;22.40;43.60;98539.25;5055295;28;20404;-61
2021/05/08 07:52:37;;;;;;;12.48;2.00;;;;;;;22.42;43.12;98526.59;5062088;28;20223;-63
2021/05/08 07:55:04;;;;;;;5.75;1.30;;;;;;;22.42;43.55;98533.78;5063448;28;20241;-64
2021/05/08 07:57:30;;;;;;;2.92;1.30;;;;;;;22.41;42.95;98532.09;5050680;28;20309;-64
2021/05/08 07:59:57;;;;;;;9.90;3.38;;;;;;;22.45;43.06;98533.44;5054435;28;20294;-63
2021/05/08 08:02:23;;;;;;;8.48;2.30;;;;;;;22.45;43.11;98536.94;5066436;28;20270;-64
2021/05/08 08:04:49;;;;;;;10.88;4.15;;;;;;;22.45;43.67;98533.44;5067221;28;20580;-61
2021/05/08 08:07:15;;;;;;;13.98;3.88;;;;;;;22.45;43.12;98534.28;5064694;28;20413;-63
2021/05/08 08:09:42;;;;;;;15.85;6.47;;;;;;;22.47;44.18;98534.97;5065732;28;20226;-64
2021/05/08 08:12:09;;;;;;;20.90;7.43;;;;;;;22.47;43.44;98528.81;5063995;28;20238;-66
2021/05/08 08:14:36;;;;;;;25.92;8.02;;;;;;;22.49;43.23;98535.63;5070240;28;20940;-64
2021/05/08 08:17:02;;;;;;;27.58;8.27;;;;;;;22.48;43.40;98530.44;5072404;28;20241;-64
2021/05/08 08:19:28;;;;;;;31.48;9.38;;;;;;;22.49;43.56;98532.97;5067831;28;20250;-64
2021/05/08 08:21:54;;;;;;;39.13;13.32;;;;;;;22.50;43.27;98533.81;5072642;28;20289;-63
2021/05/08 08:24:21;;;;;;;41.92;12.65;;;;;;;22.56;43.29;98538.50;5072061;28;20206;-71
2021/05/08 08:26:47;;;;;;;43.00;12.07;;;;;;;22.58;44.71;98533.00;5060387;28;20207;-64
2021/05/08 08:29:15;;;;;;;39.85;11.43;;;;;;;22.61;43.85;98538.03;5061017;28;21001;-65
2021/05/08 08:31:41;;;;;;;40.13;11.15;;;;;;;22.59;44.78;98545.34;5055317;28;20368;-63
2021/05/08 08:34:07;;;;;;;38.03;11.05;;;;;;;22.54;45.50;98533.31;5061584;28;20249;-66
2021/05/08 08:36:34;;;;;;;34.92;10.73;;;;;;;22.53;45.81;98531.66;5064997;28;20293;-64
2021/05/08 08:39:00;;;;;;;30.95;10.15;;;;;;;22.58;45.09;98530.34;5059137;28;20226;-65
2021/05/08 08:41:27;;;;;;;29.17;10.25;;;;;;;22.58;45.27;98530.34;5065116;28;20277;-67
2021/05/08 08:43:53;;;;;;;26.38;9.48;;;;;;;22.58;45.77;98525.84;5068043;28;20950;-65
2021/05/08 08:46:20;;;;;;;29.83;9.77;;;;;;;22.59;45.71;98526.69;5067788;28;20609;-67
2021/05/08 08:48:46;;;;;;;27.75;8.07;;;;;;;22.66;46.22;98517.06;5061301;28;20321;-64
2021/05/08 08:51:14;;;;;;;37.10;8.52;;;;;;;22.70;46.23;98516.59;5058251;28;20611;-63
2021/05/08 08:53:40;;;;;;;41.83;9.20;;;;;;;22.70;45.79;98513.94;5052255;28;20309;-65
2021/05/08 08:56:06;;;;;;;22.58;7.32;;;;;;;22.67;45.88;98508.09;5051532;28;21532;-67
2021/05/08 08:58:35;;;;;;;25.42;8.32;;;;;;;22.72;45.04;98508.44;5060491;28;21048;-66
2021/05/08 09:01:03;;;;;;;31.33;8.32;;;;;;;22.70;45.22;98497.94;5061601;28;20261;-63
2021/05/08 09:03:31;;;;;;;26.63;7.88;;;;;;;22.70;45.95;98497.13;5058831;28;20226;-59
2021/05/08 09:05:59;;;;;;;24.80;8.32;;;;;;;22.69;45.90;98498.09;5060179;28;20202;-66
2021/05/08 09:08:25;;;;;;;22.73;7.30;;;;;;;22.71;46.65;98504.91;5055043;28;20345;-62
2021/05/08 09:10:52;;;;;;;21.17;7.20;;;;;;;22.69;46.53;98498.09;5057873;28;20306;-68
2021/05/08 09:13:20;;;;;;;24.35;7.72;;;;;;;22.68;46.53;98491.09;5058272;28;20257;-70
2021/05/08 09:15:48;;;;;;;23.30;7.43;;;;;;;22.67;46.47;98486.75;5065842;28;20291;-62
2021/05/08 09:18:34;;;;;;;19.05;6.43;;;;;;;22.68;46.92;98483.09;5057715;28;20425;-64
2021/05/08 09:21:01;;;;;;;22.77;7.15;;;;;;;22.68;46.41;98485.75;5063945;28;20368;-70
2021/05/08 09:23:31;;;;;;;21.77;6.72;;;;;;;22.67;46.93;98484.09;5063512;28;20202;-69
2021/05/08 09:25:59;;;;;;;26.27;7.18;;;;;;;22.65;46.79;98472.75;5056418;28;20597;-67
2021/05/08 09:28:28;;;;;;;20.08;6.30;;;;;;;22.65;47.36;98478.06;5063529;28;20247;-61
2021/05/08 09:30:54;;;;;;;22.75;6.03;;;;;;;22.62;47.22;98467.75;5055388;28;20259;-65
2021/05/08 09:33:21;;;;;;;23.15;6.32;;;;;;;22.66;46.50;98467.25;5055340;28;20222;-63
2021/05/08 09:35:59;;;;;;;18.92;6.28;;;;;;;22.68;46.93;98461.78;5063955;28;20206;-68
2021/05/08 09:38:31;;;;;;;18.30;5.95;;;;;;;22.69;46.08;98458.13;5055574;28;20632;-68
2021/05/08 09:40:57;;;;;;;21.05;6.40;;;;;;;22.66;47.06;98459.25;5063595;28;20199;-66
2021/05/08 09:43:23;;;;;;;19.40;6.32;;;;;;;22.66;46.58;98464.59;5060661;28;20195;-64
2021/05/08 09:45:52;;;;;;;16.45;6.13;;;;;;;22.67;46.31;98455.63;5062207;28;20742;-66
2021/05/08 09:48:20;;;;;;;16.25;5.47;;;;;;;22.67;47.06;98455.63;5065861;28;20233;-67
2021/05/08 09:50:46;;;;;;;17.75;5.63;;;;;;;22.68;46.62;98459.09;5071154;28;20226;-65
2021/05/08 09:53:25;;;;;;;19.00;5.97;;;;;;;22.69;46.78;98452.78;5066550;28;20317;-68
2021/05/08 09:55:51;;;;;;;14.85;5.35;;;;;;;22.73;46.59;98452.31;5062958;28;20269;-68
2021/05/08 09:58:21;;;;;;;18.05;5.63;;;;;;;22.75;46.29;98451.31;5062458;28;20332;-67
2021/05/08 10:00:48;;;;;;;17.13;5.63;;;;;;;22.69;47.45;98450.94;5065413;28;20226;-59
2021/05/08 10:03:15;;;;;;;17.33;5.75;;;;;;;22.69;46.48;98452.78;5066313;28;20227;-65
2021/05/08 10:05:48;;;;;;;19.02;5.65;;;;;;;22.72;46.51;98447.97;5059712;28;20590;-65
2021/05/08 10:08:15;;;;;;;19.33;5.05;;;;;;;22.73;46.87;98444.31;5061053;28;20223;-66
2021/05/08 10:10:42;;;;;;;13.10;5.10;;;;;;;22.71;46.90;98445.47;5059824;28;20335;-66
2021/05/08 10:13:09;;;;;;;17.48;4.72;;;;;;;22.70;46.99;98439.31;5065962;28;20360;-63
2021/05/08 10:15:37;;;;;;;19.95;5.40;;;;;;;22.72;46.76;98431.16;5055942;28;20225;-65
2021/05/08 10:18:05;;;;;;;17.40;4.88;;;;;;;22.78;46.12;98437.66;5053797;28;20223;-67
2021/05/08 10:20:33;;;;;;;17.08;4.82;;;;;;;22.83;45.85;98432.66;5057372;28;20238;-68
2021/05/08 10:23:00;;;;;;;13.40;4.97;;;;;;;22.81;46.37;98430.16;5057239;28;20202;-68
2021/05/08 10:25:27;;;;;;;12.80;4.53;;;;;;;22.80;46.05;98423.19;5061204;28;20580;-64
2021/05/08 10:27:54;;;;;;;13.63;4.65;;;;;;;22.82;46.39;98417.69;5060132;28;20256;-67
2021/05/08 10:30:23;;;;;;;17.90;4.30;;;;;;;22.82;46.32;98421.19;5061188;28;20214;-64
2021/05/08 10:32:51;;;;;;;12.82;4.28;;;;;;;22.78;46.21;98406.50;5058423;28;20742;-65
2021/05/08 10:35:23;;;;;;;20.23;4.75;;;;;;;22.79;46.41;98404.69;5054508;28;20439;-61
2021/05/08 10:38:27;;;;;;;7.22;2.28;;;;;;;22.39;38.94;98396.41;5054873;28;20246;-65
2021/05/08 10:40:59;;;;;;;10.20;2.15;;;;;;;22.27;37.46;98397.66;5021072;28;20203;-64
2021/05/08 10:43:48;;;;;;;9.60;2.60;;;;;;;22.38;39.19;98397.38;5016854;28;20238;-68
2021/05/08 10:46:15;;;;;;;18.40;3.08;;;;;;;22.51;42.27;98386.28;5047969;28;20712;-63
2021/05/08 10:49:16;;;;;;;24.23;3.95;;;;;;;22.52;43.66;98386.13;5060535;28;20808;-58
2021/05/08 10:51:56;;;;;;;13.02;3.90;;;;;;;22.60;44.50;98381.81;5059264;28;20667;-65
2021/05/08 10:54:56;;;;;;;14.25;3.85;;;;;;;22.61;44.84;98380.81;5061953;28;20206;-65
2021/05/08 10:57:26;;;;;;;9.90;3.22;;;;;;;22.63;44.27;98370.81;5056430;28;20233;-65
2021/05/08 11:00:27;;;;;;;10.30;3.28;;;;;;;22.66;44.70;98367.84;5059495;28;20217;-63
2021/05/08 11:03:06;;;;;;;13.30;3.42;;;;;;;22.69;44.77;98357.69;5063967;28;20287;-65
2021/05/08 11:05:34;;;;;;;13.10;3.90;;;;;;;22.69;45.55;98349.69;5058729;28;20202;-63
2021/05/08 11:08:39;;;;;;;11.05;3.00;;;;;;;22.73;44.75;98363.50;5063373;28;20223;-68
2021/05/08 11:11:07;;;;;;;12.68;3.22;;;;;;;22.77;44.91;98348.06;5061507;28;20205;-65
2021/05/08 11:14:01;;;;;;;12.68;2.55;;;;;;;22.66;41.68;98357.19;5058972;28;20242;-68
2021/05/08 11:16:29;;;;;;;7.65;2.90;;;;;;;22.78;43.50;98349.69;5059132;28;20615;-65
2021/05/08 11:18:57;;;;;;;17.40;3.05;;;;;;;22.83;44.75;98352.72;5056315;28;20346;-62
2021/05/08 11:21:40;;;;;;;10.48;2.85;;;;;;;22.80;44.69;98353.03;5058732;28;20204;-63
2021/05/08 11:24:11;;;;;;;9.05;3.05;;;;;;;22.82;43.59;98343.88;5056703;28;20293;-65
2021/05/08 11:26:39;;;;;;;10.75;2.97;;;;;;;22.80;43.78;98334.38;5052583;28;20290;-64
2021/05/08 11:29:08;;;;;;;9.65;3.13;;;;;;;22.77;44.73;98332.88;5063776;28;20325;-64
2021/05/08 11:31:36;;;;;;;9.30;2.75;;;;;;;22.74;43.69;98333.22;5063268;28;20199;-66